createdAt,value
2019-04-16T00:01:23.199Z,53.80
2019-04-16T00:03:56.533Z,52.20
2019-04-16T00:06:38.966Z,52.90
2019-04-16T00:09:09.208Z,54.20
2019-04-16T00:11:42.434Z,53.90
2019-04-16T00:14:18.642Z,51.90
2019-04-16T00:16:47.340Z,52.90
2019-04-16T00:19:16.012Z,54.40
2019-04-16T00:21:49.024Z,53.70
2019-04-16T00:24:19.561Z,52.50
2019-04-16T00:26:48.477Z,52.20
2019-04-16T00:29:17.149Z,52.00
2019-04-16T00:31:47.410Z,51.70
2019-04-16T00:34:16.084Z,53.60
2019-04-16T00:36:48.613Z,52.90
2019-04-16T00:39:15.099Z,54.10
2019-04-16T00:41:43.770Z,54.70
2019-04-16T00:44:12.462Z,54.40
2019-04-16T00:46:41.137Z,54.30
2019-04-16T00:49:10.338Z,54.80
2019-04-16T00:51:39.018Z,53.20
2019-04-16T00:54:10.358Z,53.30
2019-04-16T00:56:38.053Z,53.60
2019-04-16T00:59:06.753Z,53.80
2019-04-16T01:01:35.413Z,53.60
2019-04-16T01:04:04.164Z,53.00
2019-04-16T01:06:32.929Z,52.90
2019-04-16T01:09:01.599Z,53.10
2019-04-16T01:11:30.381Z,53.60
2019-04-16T01:13:59.013Z,53.10
2019-04-16T01:16:30.259Z,53.40
2019-04-16T01:18:58.013Z,53.50
2019-04-16T01:21:26.713Z,53.40
2019-04-16T01:23:55.376Z,53.70
2019-04-16T01:26:24.282Z,53.70
2019-04-16T01:29:02.623Z,53.20
2019-04-16T01:31:39.860Z,53.00
2019-04-16T01:34:10.129Z,53.00
2019-04-16T01:36:40.385Z,53.70
2019-04-16T01:39:17.304Z,54.70
2019-04-16T01:41:40.966Z,54.00
2019-04-16T01:44:09.664Z,54.60
2019-04-16T01:46:38.348Z,54.00
2019-04-16T01:49:09.767Z,53.60
2019-04-16T01:51:37.879Z,53.80
2019-04-16T01:54:06.823Z,54.50
2019-04-16T01:56:35.507Z,53.80
2019-04-16T01:59:05.518Z,53.80
2019-04-16T02:01:34.518Z,54.10
2019-04-16T02:04:03.203Z,53.80
2019-04-16T02:06:31.878Z,55.00
2019-04-16T02:09:02.757Z,54.70
2019-04-16T02:11:30.893Z,55.20
2019-04-16T02:13:59.584Z,54.50
2019-04-16T02:16:28.253Z,54.30
2019-04-16T02:19:00.821Z,55.50
2019-04-16T02:21:27.263Z,55.30
2019-04-16T02:23:55.957Z,55.20
2019-04-16T02:26:24.673Z,56.40
2019-04-16T02:28:53.361Z,56.40
2019-04-16T02:31:22.030Z,56.40
2019-04-16T02:33:50.728Z,55.80
2019-04-16T02:36:19.393Z,55.90
2019-04-16T02:38:53.470Z,55.40
2019-04-16T02:41:24.714Z,55.90
2019-04-16T02:43:48.717Z,55.80
2019-04-16T02:46:17.419Z,56.20
2019-04-16T02:48:49.957Z,55.80
2019-04-16T02:51:39.604Z,56.20
2019-04-16T02:54:06.045Z,56.80
2019-04-16T02:56:53.110Z,57.00
2019-04-16T02:59:29.674Z,56.40
2019-04-16T03:01:59.945Z,56.00
2019-04-16T03:04:42.100Z,56.30
2019-04-16T03:07:10.797Z,55.50
2019-04-16T03:09:40.259Z,56.50
2019-04-16T03:12:09.862Z,56.70
2019-04-16T03:14:50.457Z,56.20
2019-04-16T03:17:29.645Z,56.70
2019-04-16T03:19:59.898Z,56.20
2019-04-16T03:22:30.562Z,57.20
2019-04-16T03:25:00.558Z,56.20
2019-04-16T03:27:29.251Z,57.10
2019-04-16T03:30:02.885Z,55.70
2019-04-16T03:32:33.218Z,56.10
2019-04-16T03:34:58.604Z,56.60
2019-04-16T03:37:27.272Z,57.60
2019-04-16T03:39:55.968Z,58.10
2019-04-16T03:42:27.282Z,57.90
2019-04-16T03:44:55.997Z,57.50
2019-04-16T03:47:29.072Z,57.50
2019-04-16T03:49:59.492Z,58.20
2019-04-16T03:52:28.087Z,56.90
2019-04-16T03:54:56.895Z,57.30
2019-04-16T03:57:25.561Z,58.50
2019-04-16T03:59:54.259Z,58.20
2019-04-16T04:02:23.171Z,58.80
2019-04-16T04:04:52.529Z,58.70
2019-04-16T04:07:21.220Z,59.50
2019-04-16T04:09:51.460Z,59.00
2019-04-16T04:12:20.246Z,59.10
2019-04-16T04:14:51.302Z,59.10
2019-04-16T04:17:19.261Z,58.60
2019-04-16T04:19:47.948Z,58.60
2019-04-16T04:22:16.646Z,59.60
2019-04-16T04:24:45.330Z,59.30
2019-04-16T04:27:18.251Z,59.00
2019-04-16T04:29:46.347Z,58.80
2019-04-16T04:32:14.702Z,59.10
2019-04-16T04:34:45.458Z,58.50
2019-04-16T04:37:13.710Z,58.10
2019-04-16T04:39:44.255Z,58.90
2019-04-16T04:42:13.249Z,57.90
2019-04-16T04:44:42.021Z,57.70
2019-04-16T04:47:10.710Z,59.40
2019-04-16T04:49:39.393Z,57.10
2019-04-16T04:52:08.265Z,58.10
2019-04-16T04:54:37.271Z,56.90
2019-04-16T04:57:07.516Z,57.10
2019-04-16T04:59:55.554Z,56.80
2019-04-16T05:02:24.271Z,56.70
2019-04-16T05:04:54.617Z,56.60
2019-04-16T05:07:28.116Z,55.00
2019-04-16T05:09:53.641Z,55.20
2019-04-16T05:12:22.578Z,55.00
2019-04-16T05:14:57.582Z,55.70
2019-04-16T05:17:24.349Z,55.10
2019-04-16T05:19:53.019Z,54.80
2019-04-16T05:22:22.284Z,53.50
2019-04-16T05:24:51.119Z,53.60
2019-04-16T05:27:19.794Z,52.80
2019-04-16T05:29:49.568Z,53.10
2019-04-16T05:32:18.561Z,52.10
2019-04-16T05:34:47.262Z,52.50
2019-04-16T05:37:16.667Z,51.70
2019-04-16T05:39:46.281Z,50.90
2019-04-16T05:42:15.193Z,51.60
2019-04-16T05:44:44.177Z,51.30
2019-04-16T05:47:16.780Z,50.80
2019-04-16T05:49:43.203Z,51.10
2019-04-16T05:52:11.921Z,49.80
2019-04-16T05:54:50.677Z,49.60
2019-04-16T05:57:32.784Z,48.00
2019-04-16T06:00:09.278Z,49.30
2019-04-16T06:02:35.301Z,47.80
2019-04-16T06:05:04.903Z,47.70
2019-04-16T06:07:37.721Z,46.70
2019-04-16T06:10:07.814Z,47.20
2019-04-16T06:12:54.588Z,46.50
2019-04-16T06:15:40.983Z,43.90
2019-04-16T06:18:20.113Z,45.00
2019-04-16T06:21:08.655Z,45.00
2019-04-16T06:23:55.038Z,43.90
2019-04-16T06:26:44.435Z,43.60
2019-04-16T06:29:31.763Z,43.60
2019-04-16T06:32:04.501Z,42.50
2019-04-16T06:34:34.791Z,42.80
2019-04-16T06:37:05.066Z,42.70
2019-04-16T06:39:41.361Z,41.70
2019-04-16T06:42:11.634Z,42.90
2019-04-16T06:44:54.151Z,41.60
2019-04-16T06:47:36.087Z,41.10
2019-04-16T06:50:09.682Z,40.90
2019-04-16T06:52:56.070Z,42.00
2019-04-16T06:55:26.345Z,39.40
2019-04-16T06:58:16.647Z,41.10
2019-04-16T07:00:45.324Z,38.40
2019-04-16T07:03:32.638Z,40.20
2019-04-16T07:06:04.034Z,39.30
2019-04-16T07:08:41.766Z,35.80
2019-04-16T07:11:10.096Z,37.10
2019-04-16T07:13:41.928Z,36.30
2019-04-16T07:16:09.141Z,34.50
2019-04-16T07:18:38.634Z,32.20
2019-04-16T07:21:08.142Z,32.20
2019-04-16T07:23:37.127Z,32.50
2019-04-16T07:26:06.176Z,31.50
2019-04-16T07:28:39.518Z,31.60
2019-04-16T07:31:25.911Z,32.20
2019-04-16T07:34:03.678Z,33.70
2019-04-16T07:36:33.973Z,31.40
2019-04-16T07:39:05.082Z,31.30
2019-04-16T07:42:21.340Z,30.00
2019-04-16T07:45:04.032Z,29.30
2019-04-16T07:47:34.303Z,29.70
2019-04-16T07:50:10.636Z,29.10
2019-04-16T07:52:56.578Z,28.30
2019-04-16T07:55:38.840Z,27.60
2019-04-16T07:58:07.555Z,28.20
2019-04-16T08:00:40.379Z,26.80
2019-04-16T08:03:06.578Z,29.00
2019-04-16T08:05:37.759Z,27.30
2019-04-16T08:08:05.601Z,27.70
2019-04-16T08:10:34.269Z,27.40
2019-04-16T08:13:04.549Z,27.00
2019-04-16T08:15:33.237Z,27.40
2019-04-16T08:18:01.909Z,26.20
2019-04-16T08:20:30.616Z,26.30
2019-04-16T08:23:00.861Z,26.00
2019-04-16T08:25:34.218Z,25.40
2019-04-16T08:28:01.599Z,24.80
2019-04-16T08:30:34.548Z,26.20
2019-04-16T08:33:00.605Z,25.40
2019-04-16T08:35:29.306Z,25.40
2019-04-16T08:37:58.864Z,24.40
2019-04-16T08:40:27.977Z,23.90
2019-04-16T08:42:57.537Z,24.50
2019-04-16T08:45:27.171Z,23.10
2019-04-16T08:47:55.875Z,23.60
2019-04-16T08:50:26.174Z,24.40
2019-04-16T08:52:54.881Z,24.20
2019-04-16T08:55:24.210Z,24.40
2019-04-16T08:57:53.072Z,25.50
2019-04-16T09:00:21.752Z,26.40
2019-04-16T09:02:50.447Z,26.00
2019-04-16T09:05:19.349Z,26.40
2019-04-16T09:07:50.634Z,25.50
2019-04-16T09:10:23.544Z,26.20
2019-04-16T09:13:02.502Z,27.40
2019-04-16T09:15:22.307Z,27.50
2019-04-16T09:17:52.706Z,25.50
2019-04-16T09:20:25.810Z,25.40
2019-04-16T09:22:54.657Z,26.10
2019-04-16T09:25:27.971Z,26.00
2019-04-16T09:28:00.777Z,27.60
2019-04-16T09:31:05.517Z,26.70
2019-04-16T09:33:36.654Z,26.60
2019-04-16T11:23:07.117Z,27.70
2019-04-16T11:25:35.452Z,27.10
2019-04-16T11:28:04.131Z,27.60
2019-04-16T11:30:40.133Z,28.60
2019-04-16T11:33:08.932Z,30.00
2019-04-16T11:35:37.625Z,31.50
2019-04-16T11:38:06.321Z,30.10
2019-04-16T11:40:35.016Z,31.00
2019-04-16T11:43:03.693Z,31.40
2019-04-16T11:45:33.590Z,33.30
2019-04-16T11:48:02.355Z,31.50
2019-04-16T11:50:31.005Z,32.60
2019-04-16T11:52:59.736Z,33.80
2019-04-16T11:55:28.661Z,32.50
2019-04-16T11:57:57.356Z,31.10
2019-04-16T12:00:30.358Z,31.40
2019-04-16T12:03:12.329Z,31.90
2019-04-16T12:05:42.569Z,31.40
2019-04-16T12:08:12.840Z,32.00
2019-04-16T12:10:46.397Z,31.10
2019-04-16T12:13:28.948Z,29.60
2019-04-16T12:16:08.383Z,30.30
2019-04-16T12:18:44.821Z,29.80
2019-04-16T12:21:15.121Z,30.20
2019-04-16T12:23:45.391Z,30.00
2019-04-16T12:26:32.050Z,27.60
2019-04-16T12:29:11.084Z,27.00
2019-04-16T12:31:50.293Z,26.90
2019-04-16T12:34:29.404Z,25.80
2019-04-16T12:37:15.885Z,26.00
2019-04-16T12:40:02.771Z,25.80
2019-04-16T12:42:42.225Z,25.00
2019-04-16T12:45:22.553Z,24.90
2019-04-16T12:47:59.216Z,24.00
2019-04-16T12:50:29.692Z,24.60
2019-04-16T12:53:06.005Z,25.20
2019-04-16T12:55:39.181Z,25.90
2019-04-16T12:58:11.926Z,25.00
2019-04-16T13:00:42.175Z,25.40
2019-04-16T13:03:16.413Z,25.90
2019-04-16T13:06:02.841Z,26.10
2019-04-16T13:08:53.496Z,26.30
2019-04-16T13:11:26.157Z,25.10
2019-04-16T13:13:56.429Z,25.30
2019-04-16T13:16:29.107Z,26.10
2019-04-16T13:19:08.175Z,25.70
2019-04-16T13:21:40.920Z,23.50
2019-04-16T13:24:14.188Z,23.40
2019-04-16T13:26:44.441Z,23.50
2019-04-16T13:29:16.871Z,23.30
2019-04-16T13:31:45.102Z,23.00
2019-04-16T13:34:18.335Z,22.80
2019-04-16T13:36:44.199Z,23.10
2019-04-16T13:39:17.640Z,23.10
2019-04-16T13:41:46.341Z,22.40
2019-04-16T13:44:22.102Z,21.80
2019-04-16T13:46:50.805Z,23.40
2019-04-16T13:49:24.209Z,21.70
2019-04-16T13:51:51.454Z,22.00
2019-04-16T13:54:28.310Z,22.80
2019-04-16T13:57:15.982Z,23.00
2019-04-16T14:00:04.893Z,23.20
2019-04-16T14:02:37.132Z,23.30
2019-04-16T14:05:10.052Z,22.60
2019-04-16T14:07:36.903Z,23.00
2019-04-16T14:10:06.931Z,23.10
2019-04-16T14:12:42.290Z,23.60
2019-04-16T14:15:08.817Z,23.50
2019-04-16T14:17:51.857Z,23.80
2019-04-16T14:20:12.145Z,23.90
2019-04-16T14:22:39.050Z,24.40
2019-04-16T14:25:07.962Z,24.30
2019-04-16T14:27:36.695Z,24.50
2019-04-16T14:30:10.671Z,24.50
2019-04-16T14:32:38.535Z,25.10
2019-04-16T14:35:32.341Z,27.10
2019-04-16T14:37:48.079Z,28.00
2019-04-16T14:40:18.435Z,28.60
2019-04-16T14:42:47.187Z,30.70
2019-04-16T14:45:23.279Z,31.00
2019-04-16T14:47:51.978Z,32.80
2019-04-16T14:50:23.412Z,33.40
2019-04-16T14:52:51.087Z,35.50
2019-04-16T14:55:21.381Z,35.20
2019-04-16T14:58:04.212Z,36.40
2019-04-16T15:00:50.854Z,37.60
2019-04-16T15:03:37.447Z,38.90
2019-04-16T15:06:07.800Z,40.10
2019-04-16T15:08:38.118Z,40.60
2019-04-16T15:11:24.658Z,42.00
2019-04-16T15:14:03.871Z,41.00
2019-04-16T15:16:51.058Z,42.00
2019-04-16T15:19:30.294Z,42.70
2019-04-16T15:22:16.998Z,43.50
2019-04-16T15:24:47.377Z,44.50
2019-04-16T15:27:17.669Z,44.80
2019-04-16T15:29:57.806Z,45.40
2019-04-16T15:32:40.531Z,45.60
2019-04-16T15:35:13.842Z,45.60
2019-04-16T15:37:45.123Z,46.60
2019-04-16T15:40:23.523Z,46.60
2019-04-16T15:42:59.712Z,46.90
2019-04-16T15:45:29.999Z,47.80
2019-04-16T15:48:18.926Z,47.20
2019-04-16T15:50:52.564Z,48.00
2019-04-16T15:53:25.543Z,48.10
2019-04-16T15:55:55.822Z,48.60
2019-04-16T15:58:40.796Z,48.00
2019-04-16T16:01:13.790Z,48.60
2019-04-16T16:04:00.418Z,49.20
2019-04-16T16:06:33.395Z,49.70
2019-04-16T16:09:07.334Z,48.90
2019-04-16T16:11:35.619Z,49.90
2019-04-16T16:14:04.951Z,50.40
2019-04-16T16:16:41.473Z,50.10
2019-04-16T16:19:04.043Z,50.60
2019-04-16T16:21:32.755Z,50.70
2019-04-16T16:24:06.455Z,50.50
2019-04-16T16:26:31.841Z,50.60
2019-04-16T16:29:00.585Z,51.60
2019-04-16T16:31:32.254Z,51.50
2019-04-16T16:33:59.636Z,52.00
2019-04-16T16:36:28.358Z,52.50
2019-04-16T16:38:57.361Z,53.20
2019-04-16T16:41:26.291Z,53.30
2019-04-16T16:43:55.000Z,53.60
2019-04-16T16:46:25.287Z,54.20
2019-04-16T16:48:55.010Z,54.70
2019-04-16T16:51:23.826Z,55.00
2019-04-16T16:54:08.899Z,55.40
2019-04-16T16:56:51.329Z,55.70
2019-04-16T16:59:21.645Z,55.70
2019-04-16T17:01:57.958Z,56.20
2019-04-16T17:04:28.251Z,56.10
2019-04-16T17:06:56.971Z,56.60
2019-04-16T17:09:30.140Z,56.80
2019-04-16T17:11:57.633Z,56.80
2019-04-16T17:14:26.340Z,57.10
2019-04-16T17:16:55.172Z,57.80
2019-04-16T17:19:23.909Z,58.00
2019-04-16T17:21:52.614Z,58.30
2019-04-16T17:24:21.348Z,58.40
2019-04-16T17:26:50.683Z,59.00
2019-04-16T17:29:19.764Z,59.10
2019-04-16T17:31:48.774Z,59.50
2019-04-16T17:34:17.504Z,59.80
2019-04-16T17:36:46.204Z,60.10
2019-04-16T17:39:16.499Z,59.90
2019-04-16T17:42:02.343Z,60.60
2019-04-16T17:44:39.826Z,61.00
2019-04-16T17:47:32.244Z,60.80
2019-04-16T17:50:12.279Z,61.50
2019-04-16T17:52:45.282Z,62.00
2019-04-16T17:55:15.561Z,61.50
2019-04-16T17:57:57.539Z,62.10
2019-04-16T18:00:42.834Z,63.00
2019-04-16T18:03:25.053Z,63.20
2019-04-16T18:05:57.819Z,64.00
2019-04-16T18:08:43.147Z,64.40
2019-04-16T18:11:16.149Z,64.50
2019-04-16T18:14:04.407Z,65.00
2019-04-16T18:16:33.676Z,65.60
2019-04-16T18:19:16.264Z,65.60
2019-04-16T18:24:54.981Z,66.70
2019-04-16T18:27:42.726Z,66.90
2019-04-16T18:30:28.269Z,67.30
2019-04-16T18:32:58.567Z,67.50
2019-04-16T18:35:28.919Z,67.90
2019-04-16T18:37:59.210Z,68.30
2019-04-16T18:40:29.522Z,68.00
2019-04-16T18:42:59.814Z,68.60
2019-04-16T18:45:46.382Z,68.50
2019-04-16T18:48:16.722Z,68.50
2019-04-16T18:50:45.544Z,69.00
2019-04-16T18:53:14.334Z,69.30
2019-04-16T18:55:43.062Z,69.10
2019-04-16T18:58:11.790Z,69.40
2019-04-16T19:01:01.446Z,68.70
2019-04-16T19:03:30.207Z,69.80
2019-04-16T19:05:58.908Z,70.20
2019-04-16T19:08:40.894Z,70.20
2019-04-16T19:10:58.084Z,70.60
2019-04-16T19:13:26.778Z,70.80
2019-04-16T19:15:55.503Z,70.90
2019-04-16T19:18:24.346Z,70.90
2019-04-16T19:20:53.467Z,71.00
2019-04-16T19:23:22.370Z,71.30
2019-04-16T19:25:51.835Z,71.80
2019-04-16T19:28:23.012Z,71.40
2019-04-16T19:30:51.778Z,72.10
2019-04-16T19:33:20.455Z,72.30
2019-04-16T19:35:51.967Z,72.50
2019-04-16T19:38:19.533Z,72.20
2019-04-16T19:40:50.971Z,73.00
2019-04-16T19:43:18.682Z,73.20
2019-04-16T19:45:47.403Z,72.70
2019-04-16T19:48:34.240Z,73.20
2019-04-16T19:50:50.122Z,73.10
2019-04-16T19:53:18.903Z,73.20
2019-04-16T19:55:47.646Z,73.50
2019-04-16T19:58:19.461Z,73.70
2019-04-16T20:00:48.155Z,73.40
2019-04-16T20:03:16.914Z,73.60
2019-04-16T20:05:45.636Z,73.00
2019-04-16T20:08:14.360Z,72.80
2019-04-16T20:10:43.074Z,73.10
2019-04-16T20:13:11.793Z,73.00
2019-04-16T20:15:43.324Z,73.20
2019-04-16T20:18:13.511Z,73.30
2019-04-16T20:20:42.543Z,73.10
2019-04-16T20:23:11.263Z,72.90
2019-04-16T20:25:39.970Z,72.90
2019-04-16T20:28:09.623Z,72.20
2019-04-16T20:42:17.580Z,72.30
2019-04-16T20:44:46.302Z,73.10
2019-04-16T20:47:15.005Z,73.20
2019-04-16T20:49:46.014Z,73.30
2019-04-16T20:52:14.045Z,73.80
2019-04-16T20:54:44.974Z,73.30
2019-04-16T20:57:13.997Z,74.00
2019-04-16T20:59:42.680Z,73.90
2019-04-16T21:02:11.377Z,73.70
2019-04-16T21:04:40.057Z,73.60
2019-04-16T21:07:14.342Z,73.30
2019-04-16T21:09:39.083Z,73.10
2019-04-16T21:12:12.838Z,72.70
2019-04-16T21:14:38.101Z,72.80
2019-04-16T21:17:07.692Z,71.80
2019-04-16T21:19:46.635Z,71.80
2019-04-16T21:22:16.927Z,71.60
2019-04-16T21:24:45.798Z,71.30
2019-04-16T21:27:14.477Z,71.00
2019-04-16T21:29:43.165Z,70.80
2019-04-16T21:32:25.592Z,70.40
2019-04-16T21:35:00.533Z,70.70
2019-04-16T21:37:46.240Z,70.30
2019-04-16T21:40:15.033Z,69.90
2019-04-16T21:42:43.710Z,69.60
2019-04-16T21:45:13.660Z,69.90
2019-04-16T21:47:42.723Z,70.10
2019-04-16T21:50:16.066Z,69.80
2019-04-16T21:52:41.738Z,70.20
2019-04-16T21:55:10.436Z,70.00
2019-04-16T21:57:39.109Z,70.50
2019-04-16T22:00:09.891Z,70.20
2019-04-16T22:02:40.125Z,69.40
2019-04-16T22:05:09.320Z,69.10
2019-04-16T22:07:37.989Z,69.20
2019-04-16T22:10:06.688Z,68.90
2019-04-16T22:12:35.382Z,69.10
2019-04-16T22:15:05.261Z,68.80
2019-04-16T22:17:35.864Z,68.80
2019-04-16T22:20:06.073Z,69.10
2019-04-16T22:22:34.765Z,68.80
2019-04-16T22:25:04.037Z,69.30
2019-04-16T22:27:32.737Z,68.70
2019-04-16T22:30:01.406Z,69.40
2019-04-16T22:32:31.199Z,69.30
2019-04-16T22:35:00.298Z,68.70
2019-04-16T22:37:28.977Z,68.30
2019-04-16T22:40:08.461Z,67.60
2019-04-16T22:42:38.777Z,67.20
2019-04-16T22:45:09.016Z,66.70
2019-04-16T22:47:39.289Z,66.10
2019-04-16T22:50:15.986Z,66.80
2019-04-16T22:52:38.278Z,65.60
2019-04-16T22:55:06.967Z,65.50
2019-04-16T22:57:35.637Z,65.30
2019-04-16T23:00:28.158Z,66.30
2019-04-16T23:02:56.842Z,65.30
2019-04-16T23:05:27.778Z,65.00
2019-04-16T23:07:55.888Z,64.60
2019-04-16T23:10:24.576Z,64.70
2019-04-16T23:12:53.609Z,64.70
2019-04-16T23:15:22.273Z,65.90
2019-04-16T23:17:50.945Z,65.80
2019-04-16T23:20:29.145Z,66.20
2019-04-16T23:23:09.329Z,66.40
2019-04-16T23:25:38.029Z,66.10
2019-04-16T23:28:09.893Z,66.60
2019-04-16T23:30:37.035Z,66.20
2019-04-16T23:33:05.814Z,66.10
2019-04-16T23:35:34.501Z,66.00
2019-04-16T23:38:03.173Z,65.50
2019-04-16T23:40:31.878Z,65.20
2019-04-16T23:43:18.806Z,65.60
2019-04-16T23:45:51.954Z,65.30
2019-04-16T23:48:28.078Z,65.00
2019-04-16T23:51:05.911Z,65.60
2019-04-16T23:53:52.338Z,65.90
2019-04-16T23:56:22.599Z,65.40
2019-04-16T23:59:05.170Z,65.70
